Time;durP1;ratioP1;P1;durP2;ratioP2;P2;SDS_P1;SDS_P2;PMS_P1;PMS_P2;Temp;Humidity;BMP_temperature;BMP_pressure;BME280_temperature;BME280_humidity;BME280_pressure;Samples;Min_cycle;Max_cycle;Signal;HPM_P1;HPM_P2
2022/11/10 00:01:09;;;;;;;12.55;2.35;;;;;;;9.80;77.55;99849.31;5076005;28;20406;-46
2022/11/10 00:03:38;;;;;;;11.60;2.08;;;;;;;9.81;76.71;99845.88;5074869;28;20926;-50
2022/11/10 00:06:07;;;;;;;5.95;2.60;;;;;;;9.80;77.44;99857.09;5069639;28;20079;-47
2022/11/10 00:08:34;;;;;;;7.35;1.92;;;;;;;9.80;77.19;99862.25;5077450;28;20549;-45
2022/11/10 00:11:05;;;;;;;4.93;2.50;;;;;;;9.79;77.09;99863.13;5075374;28;20105;-45
2022/11/10 00:16:59;;;;;;;6.15;1.90;;;;;;;9.80;76.97;99870.03;5073934;28;20050;-48
2022/11/10 00:19:08;;;;;;;5.15;2.22;;;;;;;9.77;76.94;99845.88;5059077;28;20130;-48
2022/11/10 00:21:36;;;;;;;6.80;2.33;;;;;;;9.75;77.97;99852.78;5071653;28;20051;-46
2022/11/10 00:24:03;;;;;;;8.75;1.83;;;;;;;9.79;77.03;99852.78;5078025;28;20075;-47
2022/11/10 00:26:30;;;;;;;7.85;2.30;;;;;;;9.80;77.36;99854.50;5073826;28;20048;-48
2022/11/10 00:28:57;;;;;;;9.13;2.40;;;;;;;9.77;77.53;99861.38;5071752;28;20106;-46
2022/11/10 00:31:23;;;;;;;6.80;2.53;;;;;;;9.78;77.67;99864.84;5074366;28;20075;-44
2022/11/10 00:33:50;;;;;;;11.02;2.95;;;;;;;9.80;77.64;99855.38;5066134;28;20135;-46
2022/11/10 00:36:17;;;;;;;4.47;2.33;;;;;;;9.81;77.63;99861.38;5055417;28;20579;-47
2022/11/10 00:38:43;;;;;;;12.25;2.67;;;;;;;9.77;77.98;99865.72;5064743;28;20457;-48
2022/11/10 00:41:10;;;;;;;11.13;1.00;;;;;;;9.79;77.66;99869.16;5064643;28;20531;-47
2022/11/10 00:43:36;;;;;;;10.43;3.03;;;;;;;9.77;77.69;99876.91;5058410;28;20049;-46
2022/11/10 00:46:03;;;;;;;10.25;3.10;;;;;;;9.75;77.89;99877.78;5057534;28;20080;-46
2022/11/10 00:48:30;;;;;;;4.38;2.38;;;;;;;9.76;78.11;99885.53;5058022;28;20083;-47
2022/11/10 00:50:56;;;;;;;8.82;2.88;;;;;;;9.77;78.02;99876.91;5055678;28;20543;-47
2022/11/10 00:53:23;;;;;;;4.25;1.73;;;;;;;9.75;77.54;99882.94;5061518;28;20472;-45
2022/11/10 00:55:50;;;;;;;5.63;2.72;;;;;;;9.75;77.83;99886.41;5061151;28;20114;-47
2022/11/10 00:58:17;;;;;;;10.88;3.47;;;;;;;9.70;78.38;99885.56;5062489;28;20129;-47
2022/11/10 01:00:43;;;;;;;7.45;2.45;;;;;;;9.72;78.11;99876.06;5059542;28;20123;-45
2022/11/10 01:03:15;;;;;;;7.28;2.78;;;;;;;9.76;77.55;99884.66;5065066;28;20041;-47
2022/11/10 01:05:42;;;;;;;12.88;2.38;;;;;;;9.75;78.02;99894.16;5061501;28;20132;-49
2022/11/10 01:08:09;;;;;;;10.27;2.72;;;;;;;9.76;78.12;99900.19;5062273;28;20128;-48
2022/11/10 01:10:36;;;;;;;11.25;2.25;;;;;;;9.77;77.96;99902.78;5059553;28;20056;-48
2022/11/10 01:13:03;;;;;;;8.25;2.67;;;;;;;9.79;77.83;99896.75;5063877;28;20146;-46
2022/11/10 01:15:29;;;;;;;6.65;2.55;;;;;;;9.82;77.82;99886.38;5057141;28;20441;-46
2022/11/10 01:17:56;;;;;;;7.43;2.28;;;;;;;9.82;77.85;99894.13;5057925;28;20076;-45
2022/11/10 01:20:23;;;;;;;10.23;3.10;;;;;;;9.82;77.13;99888.97;5056694;28;20106;-45
2022/11/10 01:22:50;;;;;;;7.70;2.65;;;;;;;9.82;77.42;99892.41;5060588;28;20076;-46
2022/11/10 01:25:17;;;;;;;6.20;2.95;;;;;;;9.82;77.73;99900.19;5063957;28;20072;-48
2022/11/10 01:27:43;;;;;;;5.47;1.90;;;;;;;9.81;77.90;99893.28;5061011;28;20123;-48
2022/11/10 01:30:11;;;;;;;9.85;2.97;;;;;;;9.81;78.34;99887.25;5054628;28;20133;-47
2022/11/10 01:32:37;;;;;;;6.85;2.92;;;;;;;9.80;77.77;99890.72;5061656;28;20128;-45
2022/11/10 01:35:05;;;;;;;6.80;2.30;;;;;;;9.82;78.30;99899.31;5059183;28;20052;-46
2022/11/10 01:37:31;;;;;;;8.18;2.78;;;;;;;9.76;78.40;99895.88;5061294;28;20076;-47
2022/11/10 01:39:58;;;;;;;10.40;2.45;;;;;;;9.75;78.55;99909.69;5055637;28;20060;-45
2022/11/10 01:42:28;;;;;;;9.25;1.30;;;;;;;9.71;78.59;99907.97;5059011;28;20412;-47
2022/11/10 01:48:02;;;;;;;8.35;1.27;;;;;;;9.76;77.69;99920.88;5031273;28;20421;-48
2022/11/10 01:50:35;;;;;;;9.27;1.15;;;;;;;9.74;77.91;99915.72;5010381;28;20112;-47
2022/11/10 01:53:06;;;;;;;8.75;0.88;;;;;;;9.74;78.01;99918.31;5014356;28;20050;-47
2022/11/10 01:55:36;;;;;;;9.65;0.80;;;;;;;9.73;77.83;99919.16;5019177;28;20499;-48
2022/11/10 01:58:04;;;;;;;8.55;1.00;;;;;;;9.71;78.27;99913.16;5014171;28;20060;-46
2022/11/10 02:00:31;;;;;;;5.72;1.20;;;;;;;9.71;78.28;99917.44;5011096;28;20115;-45
2022/11/10 02:05:37;;;;;;;5.60;1.60;;;;;;;9.72;77.95;99925.19;5040782;28;20425;-49
2022/11/10 02:08:04;;;;;;;13.65;1.10;;;;;;;9.74;78.20;99917.44;5016953;28;20141;-48
2022/11/10 02:10:31;;;;;;;7.60;1.20;;;;;;;9.72;78.06;99914.84;5002408;28;20446;-48
2022/11/10 02:12:58;;;;;;;8.55;2.05;;;;;;;9.74;78.57;99917.44;4999018;28;20130;-49
2022/11/10 02:15:24;;;;;;;8.57;2.22;;;;;;;9.75;78.26;99922.63;4997560;28;20093;-49
2022/11/10 02:17:51;;;;;;;12.10;2.33;;;;;;;9.73;78.47;99921.75;4999338;28;20567;-47
2022/11/10 02:20:19;;;;;;;7.45;1.52;;;;;;;9.70;78.46;99926.06;5001076;28;20042;-49
2022/11/10 02:22:46;;;;;;;6.38;1.23;;;;;;;9.74;78.81;99931.25;5000479;28;20096;-48
2022/11/10 02:25:16;;;;;;;8.43;1.35;;;;;;;9.76;78.08;99942.44;4999757;28;20125;-45
2022/11/10 02:27:43;;;;;;;5.97;1.15;;;;;;;9.74;78.70;99933.84;4998177;28;20650;-45
2022/11/10 02:30:10;;;;;;;6.78;1.65;;;;;;;9.80;78.71;99938.16;5006488;28;20123;-48
2022/11/10 02:32:37;;;;;;;10.02;1.42;;;;;;;9.85;78.22;99941.56;4979432;28;20093;-46
2022/11/10 02:35:04;;;;;;;11.00;1.75;;;;;;;9.91;78.29;99945.88;4981248;28;20129;-46
2022/11/10 02:37:31;;;;;;;5.78;1.17;;;;;;;9.96;78.09;99948.47;4979935;28;20058;-47
2022/11/10 02:39:57;;;;;;;7.93;1.35;;;;;;;10.00;79.14;99945.00;4997230;28;20042;-46
2022/11/10 02:42:24;;;;;;;5.22;1.02;;;;;;;10.02;78.29;99948.44;4980691;28;20129;-46
2022/11/10 02:44:51;;;;;;;9.77;1.25;;;;;;;10.02;78.50;99945.84;4976979;28;20085;-46
2022/11/10 02:47:18;;;;;;;6.47;1.08;;;;;;;10.00;78.46;99945.00;4982012;28;20070;-45
2022/11/10 02:49:45;;;;;;;6.38;1.15;;;;;;;10.00;78.48;99945.84;4981120;28;20126;-45
2022/11/10 02:52:11;;;;;;;5.75;1.33;;;;;;;9.99;78.12;99938.97;4980685;28;20134;-48
2022/11/10 02:54:38;;;;;;;8.20;1.65;;;;;;;9.99;78.12;99949.31;4976729;28;20126;-46
2022/11/10 02:57:04;;;;;;;8.85;1.65;;;;;;;9.99;77.98;99951.03;4981997;28;20101;-48
2022/11/10 02:59:31;;;;;;;5.75;1.58;;;;;;;10.00;78.20;99966.53;4978439;28;20074;-46
2022/11/10 03:01:57;;;;;;;6.53;1.08;;;;;;;10.02;78.03;99972.59;4977783;28;20049;-47
2022/11/10 03:04:24;;;;;;;7.05;1.88;;;;;;;10.03;78.19;99963.97;4979734;28;20397;-48
2022/11/10 03:06:50;;;;;;;5.72;0.77;;;;;;;10.08;78.23;99956.19;4978560;28;20405;-45
2022/11/10 03:09:17;;;;;;;6.97;0.85;;;;;;;10.11;78.49;99963.09;4978690;28;20060;-46
2022/11/10 03:11:43;;;;;;;9.35;1.05;;;;;;;10.15;78.02;99964.81;4976435;28;20054;-47
2022/11/10 03:14:10;;;;;;;9.85;1.40;;;;;;;10.18;78.36;99966.50;4979758;28;20134;-47
2022/11/10 03:16:37;;;;;;;11.30;1.48;;;;;;;10.20;78.11;99968.22;4967670;28;20055;-47
2022/11/10 03:19:03;;;;;;;6.95;1.10;;;;;;;10.22;78.06;99960.47;4966599;28;20053;-46
2022/11/10 03:21:30;;;;;;;9.30;0.77;;;;;;;10.25;77.93;99961.34;4966299;28;20086;-47
2022/11/10 03:23:56;;;;;;;4.40;1.25;;;;;;;10.23;78.31;99950.09;4964385;28;20075;-45
2022/11/10 03:26:23;;;;;;;5.30;0.85;;;;;;;10.29;77.97;99959.59;4966642;28;20258;-48
2022/11/10 03:28:49;;;;;;;8.60;1.45;;;;;;;10.32;78.12;99966.47;4966322;28;20088;-47
2022/11/10 03:31:16;;;;;;;2.35;0.57;;;;;;;10.32;78.08;99976.84;4964797;28;20053;-47
2022/11/10 03:33:43;;;;;;;3.33;0.70;;;;;;;10.35;78.60;99972.53;4967514;28;20483;-47
2022/11/10 03:36:09;;;;;;;8.07;1.27;;;;;;;10.38;78.12;99976.81;4966982;28;20557;-50
2022/11/10 03:38:36;;;;;;;7.15;0.90;;;;;;;10.42;78.33;99991.47;4964862;28;20130;-48
2022/11/10 03:41:02;;;;;;;5.22;1.17;;;;;;;10.45;78.42;99978.56;4964779;28;20078;-46
2022/11/10 03:43:45;;;;;;;7.75;1.48;;;;;;;10.46;78.07;99985.47;4961067;28;20055;-48
2022/11/10 03:46:11;;;;;;;6.25;0.57;;;;;;;10.49;78.29;99979.41;4961245;28;20073;-48
2022/11/10 03:48:38;;;;;;;4.70;1.20;;;;;;;10.52;77.90;99984.56;4965495;28;20739;-45
2022/11/10 03:51:05;;;;;;;15.13;1.73;;;;;;;10.53;77.67;99981.97;4963850;28;20130;-46
2022/11/10 03:53:31;;;;;;;5.53;1.38;;;;;;;10.56;78.28;99975.06;4963864;28;20070;-45
2022/11/10 03:56:00;;;;;;;14.90;1.58;;;;;;;10.57;77.83;99966.44;4963248;28;20126;-45
2022/11/10 03:58:27;;;;;;;6.90;0.63;;;;;;;10.59;78.34;99967.28;4966181;28;20809;-46
2022/11/10 04:00:54;;;;;;;1.38;0.60;;;;;;;10.60;78.11;99961.25;4960878;28;20074;-51
2022/11/10 04:03:21;;;;;;;3.85;1.05;;;;;;;10.58;78.11;99956.06;4964347;28;20129;-46
2022/11/10 04:16:55;;;;;;;9.82;0.68;;;;;;;10.48;78.18;99963.03;4984572;28;20142;-49
2022/11/10 04:19:22;;;;;;;5.35;0.80;;;;;;;10.49;78.33;99963.88;4961221;28;20066;-48
2022/11/10 04:21:48;;;;;;;5.93;0.75;;;;;;;10.49;77.94;99980.28;4962379;28;20050;-48
2022/11/10 04:24:15;;;;;;;2.55;0.40;;;;;;;10.51;78.75;99968.16;4964492;28;20762;-47
2022/11/10 04:26:42;;;;;;;3.95;0.63;;;;;;;10.54;78.36;99972.50;4977130;28;20138;-47
2022/11/10 04:29:10;;;;;;;5.28;1.55;;;;;;;10.57;79.00;99980.22;4962878;28;20134;-46
2022/11/10 04:31:39;;;;;;;3.00;0.93;;;;;;;10.61;79.14;99988.88;4972507;28;20506;-49
2022/11/10 04:34:10;;;;;;;1.38;0.43;;;;;;;10.62;78.66;99995.75;4963294;28;20129;-48
2022/11/10 04:36:39;;;;;;;3.42;0.55;;;;;;;10.68;78.24;99993.16;4961746;28;20141;-46
2022/11/10 04:39:06;;;;;;;6.95;1.15;;;;;;;10.73;77.93;99988.81;4959218;28;20078;-47
2022/11/10 04:41:33;;;;;;;3.67;1.20;;;;;;;10.77;78.36;100003.47;4963233;28;20082;-51
2022/11/10 04:44:01;;;;;;;3.67;0.90;;;;;;;10.82;78.87;100003.47;4963593;28;20050;-48
2022/11/10 04:46:31;;;;;;;3.88;1.05;;;;;;;10.86;78.52;100009.47;4978270;28;20085;-46
2022/11/10 04:48:58;;;;;;;4.85;1.10;;;;;;;10.89;78.69;100019.84;4965505;28;20066;-47
2022/11/10 04:51:29;;;;;;;4.22;0.65;;;;;;;10.93;78.77;100021.53;4963681;28;20050;-48
2022/11/10 04:53:56;;;;;;;4.22;0.57;;;;;;;10.96;78.57;100026.72;4965969;28;20565;-49
2022/11/10 04:56:24;;;;;;;6.45;0.52;;;;;;;10.99;78.29;100029.28;4961198;28;20085;-46
2022/11/10 04:58:51;;;;;;;5.15;0.93;;;;;;;11.02;78.74;100031.84;4966215;28;20142;-46
2022/11/10 05:01:20;;;;;;;2.97;0.80;;;;;;;11.07;77.67;100025.81;4965395;28;20129;-46
2022/11/10 05:03:48;;;;;;;10.77;2.05;;;;;;;11.10;78.47;100025.75;4966973;28;20065;-46
2022/11/10 05:06:15;;;;;;;3.65;0.95;;;;;;;11.09;77.84;100018.88;4962192;28;20065;-46
2022/11/10 05:08:42;;;;;;;5.32;0.68;;;;;;;11.14;77.42;100030.06;4965827;28;20169;-46
2022/11/10 05:11:10;;;;;;;2.65;0.50;;;;;;;11.15;78.82;100032.66;4966708;28;20050;-48
2022/11/10 05:13:37;;;;;;;2.67;0.85;;;;;;;11.19;77.75;100028.31;4968084;28;20292;-46
2022/11/10 05:16:04;;;;;;;5.47;1.10;;;;;;;11.21;77.45;100018.78;4981232;28;21442;-48
2022/11/10 05:18:31;;;;;;;4.82;0.75;;;;;;;11.22;78.44;100007.56;4965463;28;20166;-46
2022/11/10 05:20:57;;;;;;;3.75;0.80;;;;;;;11.23;77.85;100004.09;4965315;28;20132;-47
2022/11/10 05:23:40;;;;;;;6.22;1.17;;;;;;;11.28;77.22;100007.53;4967316;28;20051;-47
2022/11/10 05:26:09;;;;;;;;;;;;;;;11.19;78.77;100002.41;4966990;28;20058;-47
2022/11/10 05:28:36;;;;;;;3.50;0.60;;;;;;;11.30;77.36;99994.53;4994915;28;19976;-49
2022/11/10 05:31:02;;;;;;;2.95;1.27;;;;;;;11.31;77.89;99991.94;4963090;28;20142;-47
2022/11/10 05:33:29;;;;;;;2.20;0.68;;;;;;;11.30;77.46;99985.06;4968550;28;20172;-45
2022/11/10 05:35:56;;;;;;;5.93;0.93;;;;;;;11.33;77.27;99984.16;4963287;28;20142;-48
2022/11/10 05:38:24;;;;;;;7.85;0.80;;;;;;;11.35;78.11;99997.13;4964547;28;20145;-49
2022/11/10 05:40:50;;;;;;;4.82;0.85;;;;;;;11.34;77.17;100000.59;4965057;28;20077;-47
2022/11/10 05:43:17;;;;;;;4.03;1.08;;;;;;;11.32;78.16;99998.84;4967313;28;20751;-47
2022/11/10 05:45:44;;;;;;;5.53;1.05;;;;;;;11.33;77.83;100004.91;4955137;28;20047;-47
2022/11/10 05:48:10;;;;;;;3.78;0.50;;;;;;;11.34;78.03;100016.16;4960596;28;20165;-45
2022/11/10 05:50:37;;;;;;;2.40;0.50;;;;;;;11.34;77.18;100005.78;4960049;28;20054;-48
2022/11/10 05:53:04;;;;;;;3.72;0.30;;;;;;;11.32;77.42;100019.59;4960872;28;20451;-48
2022/11/10 05:55:30;;;;;;;3.40;0.93;;;;;;;11.29;77.73;100018.75;4961995;28;20067;-46
2022/11/10 05:57:57;;;;;;;1.67;0.93;;;;;;;11.25;77.98;100023.09;4966981;28;20752;-44
2022/11/10 06:00:28;;;;;;;5.72;0.65;;;;;;;11.25;77.03;100030.88;4960228;28;20060;-48
2022/11/10 06:02:57;;;;;;;1.95;0.63;;;;;;;11.24;77.42;100041.25;4963440;28;20086;-48
2022/11/10 06:05:23;;;;;;;3.60;1.27;;;;;;;11.26;77.37;100045.56;4958430;28;20051;-50
2022/11/10 06:07:57;;;;;;;3.80;0.55;;;;;;;11.26;77.92;100045.56;4963364;28;20409;-47
2022/11/10 06:10:24;;;;;;;3.28;0.75;;;;;;;11.28;77.65;100043.81;4962629;28;20076;-45
2022/11/10 06:12:50;;;;;;;5.03;1.08;;;;;;;11.29;77.32;100040.34;4961955;28;20141;-46
2022/11/10 06:15:17;;;;;;;2.38;0.38;;;;;;;11.31;77.93;100048.13;4961209;28;20137;-46
2022/11/10 06:17:44;;;;;;;4.45;0.98;;;;;;;11.34;77.75;100057.63;4963040;28;20145;-47
2022/11/10 06:20:12;;;;;;;7.10;0.60;;;;;;;11.35;77.28;100055.00;4962095;28;21220;-47
2022/11/10 06:22:39;;;;;;;4.75;1.70;;;;;;;11.38;77.27;100056.75;4963284;28;20161;-48
2022/11/10 06:25:07;;;;;;;2.58;0.68;;;;;;;11.36;78.28;100053.28;4965963;28;20098;-47
2022/11/10 06:27:34;;;;;;;4.00;0.57;;;;;;;11.40;78.32;100042.91;4960939;28;20050;-48
2022/11/10 06:30:01;;;;;;;5.28;0.73;;;;;;;11.42;78.46;100050.66;4964024;28;20055;-47
2022/11/10 06:32:28;;;;;;;5.30;1.25;;;;;;;11.41;77.93;100039.44;4963367;28;20146;-49
2022/11/10 06:34:54;;;;;;;7.18;0.93;;;;;;;11.46;77.56;100026.44;4959377;28;20139;-47
2022/11/10 06:37:26;;;;;;;3.67;0.70;;;;;;;11.47;77.27;100035.94;4965644;28;20050;-48
2022/11/10 06:39:52;;;;;;;2.15;0.60;;;;;;;11.47;78.29;100043.72;4961452;28;20149;-46
2022/11/10 06:42:19;;;;;;;3.38;0.98;;;;;;;11.49;78.01;100041.09;4959927;28;20058;-47
2022/11/10 06:44:45;;;;;;;4.63;1.17;;;;;;;11.52;77.24;100046.28;4962655;28;20043;-47
2022/11/10 06:47:12;;;;;;;5.72;0.70;;;;;;;11.53;77.78;100035.91;4962068;28;20054;-48
2022/11/10 06:49:38;;;;;;;4.63;0.65;;;;;;;11.56;77.82;100038.44;4963410;28;20182;-49
2022/11/10 06:52:05;;;;;;;2.42;0.82;;;;;;;11.56;78.02;100043.63;4963732;28;20082;-51
2022/11/10 06:54:32;;;;;;;5.10;1.52;;;;;;;11.60;77.52;100041.03;4969006;28;20165;-47
2022/11/10 06:56:58;;;;;;;3.90;0.88;;;;;;;11.61;78.56;100040.16;4966059;28;20047;-46
2022/11/10 06:59:25;;;;;;;2.33;0.45;;;;;;;11.63;77.83;100043.59;4964462;28;20109;-48
2022/11/10 07:01:51;;;;;;;3.70;0.95;;;;;;;11.63;77.87;100047.06;4964356;28;20130;-50
2022/11/10 07:04:18;;;;;;;7.75;1.00;;;;;;;11.64;77.83;100053.97;4965220;28;20052;-46
2022/11/10 07:06:46;;;;;;;4.30;0.55;;;;;;;11.67;77.93;100045.31;4963136;28;20068;-49
2022/11/10 07:09:14;;;;;;;4.65;0.70;;;;;;;11.69;77.98;100059.13;4964694;28;20050;-48
2022/11/10 07:11:41;;;;;;;4.45;0.93;;;;;;;11.72;77.43;100069.47;4965135;28;20141;-47
2022/11/10 07:14:08;;;;;;;5.20;0.60;;;;;;;11.75;77.70;100059.06;4961598;28;20259;-45
2022/11/10 07:16:35;;;;;;;1.83;0.45;;;;;;;11.77;77.68;100072.91;4976185;28;20047;-46
2022/11/10 07:19:02;;;;;;;4.25;0.55;;;;;;;11.78;76.94;100079.81;4965377;28;20138;-47
2022/11/10 07:21:28;;;;;;;5.95;0.93;;;;;;;11.81;77.77;100082.41;4966847;28;20171;-48
2022/11/10 07:23:55;;;;;;;5.72;0.93;;;;;;;11.81;77.21;100085.00;4967435;28;20113;-46
2022/11/10 07:26:22;;;;;;;4.40;1.42;;;;;;;11.84;77.33;100089.28;4968442;28;20050;-47
2022/11/10 07:28:48;;;;;;;2.90;0.75;;;;;;;11.85;78.22;100096.19;4968091;28;20145;-47
2022/11/10 07:31:15;;;;;;;3.28;0.30;;;;;;;11.84;78.04;100102.28;4968473;28;20173;-48
2022/11/10 07:33:42;;;;;;;3.85;0.52;;;;;;;11.87;78.42;100114.34;4967639;28;20058;-45
2022/11/10 07:36:09;;;;;;;2.90;0.57;;;;;;;11.90;78.23;100109.16;4969015;28;20057;-45
2022/11/10 07:38:36;;;;;;;3.42;0.90;;;;;;;11.92;78.41;100112.59;4967835;28;20054;-47
2022/11/10 07:41:03;;;;;;;1.67;0.47;;;;;;;11.94;77.54;100110.84;4966549;28;20488;-45
2022/11/10 07:43:29;;;;;;;3.78;0.93;;;;;;;11.96;77.16;100119.50;4967270;28;20121;-44
2022/11/10 07:45:56;;;;;;;2.45;0.70;;;;;;;11.94;77.97;100118.63;4963893;28;20054;-46
2022/11/10 07:48:23;;;;;;;5.28;0.35;;;;;;;11.99;78.27;100126.41;4962816;28;20181;-46
2022/11/10 07:50:49;;;;;;;5.40;1.45;;;;;;;11.97;78.51;100129.00;4957361;28;20141;-55
2022/11/10 07:53:19;;;;;;;2.40;0.60;;;;;;;12.00;78.37;100126.38;4957527;28;20138;-47
2022/11/10 07:55:46;;;;;;;6.03;0.68;;;;;;;12.01;78.18;100120.31;4957307;28;20235;-46
2022/11/10 07:58:16;;;;;;;5.32;0.82;;;;;;;12.05;77.92;100119.41;4960774;28;20141;-45
2022/11/10 08:00:44;;;;;;;6.90;1.02;;;;;;;12.04;77.88;100122.91;4973756;28;20079;-45
2022/11/10 08:05:47;;;;;;;2.45;0.35;;;;;;;12.19;77.92;100134.03;5021781;27;21126;-46
2022/11/10 08:08:14;;;;;;;5.55;1.92;;;;;;;12.20;77.60;100133.19;4982197;28;20577;-46
2022/11/10 08:10:41;;;;;;;1.77;0.77;;;;;;;12.26;77.84;100138.31;4979076;28;20138;-48
2022/11/10 08:13:10;;;;;;;5.43;0.88;;;;;;;12.30;77.36;100134.81;4969343;28;20070;-45
2022/11/10 08:15:37;;;;;;;4.05;0.45;;;;;;;12.33;78.35;100145.19;4980517;28;20137;-47
2022/11/10 08:18:07;;;;;;;4.60;0.93;;;;;;;12.39;78.12;100156.41;4975646;28;20755;-48
2022/11/10 08:20:34;;;;;;;3.88;1.73;;;;;;;12.44;77.13;100165.03;4981432;28;20078;-47
2022/11/10 08:23:03;;;;;;;4.25;0.77;;;;;;;12.48;78.00;100164.13;4975695;28;20133;-46
2022/11/10 08:25:32;;;;;;;3.53;0.32;;;;;;;12.52;77.46;100159.75;4974051;28;20133;-47
2022/11/10 08:28:04;;;;;;;3.88;1.17;;;;;;;12.56;77.99;100157.13;4977421;28;20486;-46
2022/11/10 08:30:33;;;;;;;2.13;0.60;;;;;;;12.63;77.54;100167.47;4981382;28;20038;-45
2022/11/10 08:33:01;;;;;;;2.58;0.77;;;;;;;12.71;77.87;100181.25;4976547;28;20050;-45
2022/11/10 08:35:30;;;;;;;2.38;0.55;;;;;;;12.76;77.04;100189.84;4963878;28;20173;-48
2022/11/10 08:37:56;;;;;;;2.78;0.65;;;;;;;12.80;76.80;100182.91;4973760;28;20133;-48
2022/11/10 08:40:26;;;;;;;3.50;1.20;;;;;;;12.84;76.88;100193.22;4976325;28;20133;-49
2022/11/10 08:42:58;;;;;;;3.63;0.68;;;;;;;12.91;76.36;100193.19;5015593;28;20043;-47
2022/11/10 08:45:25;;;;;;;5.15;1.83;;;;;;;12.96;76.02;100193.97;4992088;28;20206;-49
2022/11/10 08:47:57;;;;;;;9.38;0.77;;;;;;;12.97;76.37;100200.94;4992668;28;20145;-47
2022/11/10 08:50:23;;;;;;;2.78;1.02;;;;;;;12.96;76.55;100191.38;4980118;28;20050;-45
2022/11/10 08:52:50;;;;;;;1.20;0.50;;;;;;;12.94;76.55;100188.78;4977783;28;20046;-47
2022/11/10 08:55:18;;;;;;;5.50;0.70;;;;;;;12.93;76.80;100197.47;4976492;28;20038;-45
2022/11/10 08:57:46;;;;;;;6.07;1.08;;;;;;;12.92;77.14;100194.88;4979011;28;20058;-48
2022/11/10 09:00:14;;;;;;;1.65;1.35;;;;;;;12.90;76.26;100187.09;4980988;28;20147;-44
2022/11/10 09:02:41;;;;;;;7.38;0.77;;;;;;;12.92;76.71;100177.56;4981149;28;20057;-48
2022/11/10 09:05:08;;;;;;;5.32;0.70;;;;;;;12.95;76.49;100181.88;4978534;28;20141;-44
2022/11/10 09:07:45;;;;;;;2.60;0.68;;;;;;;12.94;76.65;100182.75;4982277;28;20057;-47
2022/11/10 09:10:13;;;;;;;1.92;0.40;;;;;;;12.98;76.96;100187.03;4992827;28;20129;-45
2022/11/10 09:12:41;;;;;;;0.88;0.40;;;;;;;13.03;76.29;100207.81;4976752;28;20050;-49
2022/11/10 09:15:09;;;;;;;3.17;0.77;;;;;;;13.06;76.25;100202.53;4993866;28;20070;-46
2022/11/10 09:17:37;;;;;;;2.63;0.30;;;;;;;13.07;76.37;100205.13;4964942;28;20148;-47
2022/11/10 09:20:05;;;;;;;3.05;0.30;;;;;;;13.06;76.79;100203.41;4965379;28;20128;-47
2022/11/10 09:22:34;;;;;;;3.13;0.60;;;;;;;13.08;76.21;100200.81;4960594;28;20042;-47
2022/11/10 09:25:01;;;;;;;3.10;0.52;;;;;;;13.11;76.50;100219.81;4967058;28;20047;-46
2022/11/10 09:27:28;;;;;;;2.05;0.65;;;;;;;13.16;76.35;100224.09;4963359;28;20054;-46
2022/11/10 09:29:54;;;;;;;4.47;0.63;;;;;;;13.19;76.88;100224.09;4963362;28;20141;-48
2022/11/10 09:32:21;;;;;;;1.33;0.22;;;;;;;13.23;76.20;100230.97;4963658;28;20163;-46
2022/11/10 09:34:47;;;;;;;2.13;0.68;;;;;;;13.26;75.99;100233.53;4965486;28;20381;-50
2022/11/10 09:37:18;;;;;;;1.25;0.43;;;;;;;13.32;75.66;100230.88;4967050;28;20047;-46
2022/11/10 09:39:45;;;;;;;1.40;0.32;;;;;;;13.35;75.32;100251.63;4962063;28;20047;-48
2022/11/10 09:42:33;;;;;;;3.22;0.82;;;;;;;13.35;75.74;100236.03;4966177;28;20444;-48
2022/11/10 09:45:24;;;;;;;1.15;0.60;;;;;;;13.43;75.14;100242.88;4952925;28;20137;-47
2022/11/10 09:48:00;;;;;;;3.83;0.75;;;;;;;13.62;75.60;100244.44;4953749;28;20134;-48
2022/11/10 09:50:32;;;;;;;;;;;;;;;13.64;75.42;100244.41;4949145;28;20462;-47
2022/11/10 09:52:59;;;;;;;3.42;0.80;;;;;;;13.78;75.35;100251.19;4947642;28;19957;-49
2022/11/10 09:58:11;;;;;;;6.20;1.00;;;;;;;13.79;74.14;100243.38;5057062;28;20406;-46
2022/11/10 10:00:41;;;;;;;1.33;1.13;;;;;;;13.80;74.95;100258.09;5037799;28;20157;-48
2022/11/10 10:03:15;;;;;;;2.63;1.00;;;;;;;13.80;74.93;100263.31;4998339;28;20218;-47
2022/11/10 10:06:11;;;;;;;2.83;0.85;;;;;;;13.75;73.77;100280.75;4999434;28;20073;-49
2022/11/10 10:08:51;;;;;;;;;;;;;;;13.65;75.36;100273.91;4990798;28;20137;-49
2022/11/10 10:11:47;;;;;;;3.75;0.50;;;;;;;13.66;74.18;100291.25;5000050;28;19997;-49
2022/11/10 10:25:15;;;;;;;3.65;2.05;;;;;;;13.67;74.83;100303.38;5060617;28;20392;-47
2022/11/10 10:27:44;;;;;;;1.42;0.40;;;;;;;13.68;74.73;100268.69;5015772;28;20449;-48
2022/11/10 10:30:13;;;;;;;4.60;1.70;;;;;;;13.68;75.18;100247.84;5009420;28;20403;-52
2022/11/10 10:32:41;;;;;;;3.00;2.05;;;;;;;13.71;74.67;100250.44;5001338;28;20073;-48
2022/11/10 10:35:13;;;;;;;5.50;2.42;;;;;;;13.77;75.10;100241.69;5002816;28;20050;-50
2022/11/10 10:37:47;;;;;;;3.85;0.55;;;;;;;13.80;74.92;100241.63;5002210;28;20684;-49
2022/11/10 10:40:19;;;;;;;2.92;2.45;;;;;;;13.81;75.22;100249.41;5001553;28;20073;-48
2022/11/10 10:42:46;;;;;;;4.10;2.40;;;;;;;13.84;74.94;100249.38;4999516;28;20148;-48
2022/11/10 10:47:53;;;;;;;1.02;0.40;;;;;;;13.95;75.19;100250.97;5010629;28;20442;-50
2022/11/10 10:53:20;;;;;;;1.60;0.60;;;;;;;13.97;73.72;100267.44;5046772;27;20414;-49
2022/11/10 10:58:34;;;;;;;2.53;0.60;;;;;;;14.00;74.10;100280.41;5039789;28;20412;-47
2022/11/10 11:06:25;;;;;;;6.43;1.67;;;;;;;14.03;73.69;100285.59;5030846;28;20417;-47
2022/11/10 11:11:32;;;;;;;2.88;1.00;;;;;;;14.29;73.84;100302.63;5107702;27;20759;-46
2022/11/10 11:14:22;;;;;;;3.22;0.50;;;;;;;14.16;73.99;100301.03;5081311;28;20053;-50
2022/11/10 11:19:30;;;;;;;4.47;0.65;;;;;;;14.16;73.83;100301.03;5057449;28;20399;-48
2022/11/10 11:28:04;;;;;;;4.05;2.20;;;;;;;14.08;74.02;100286.38;5021535;28;22321;-47
2022/11/10 11:36:20;;;;;;;3.10;1.38;;;;;;;14.42;72.98;100282.44;5029195;27;20408;-51
2022/11/10 11:44:32;;;;;;;3.40;1.58;;;;;;;14.34;73.39;100274.75;5054355;27;21194;-47
2022/11/10 11:50:05;;;;;;;3.65;1.48;;;;;;;14.31;73.17;100251.31;5060041;27;20387;-48
2022/11/10 12:14:51;;;;;;;2.40;0.50;;;;;;;14.52;73.00;100298.78;5040699;27;20403;-48
2022/11/10 12:20:20;;;;;;;2.78;0.85;;;;;;;14.53;72.22;100310.94;5048146;28;20396;-47
2022/11/10 12:30:59;;;;;;;3.17;0.70;;;;;;;14.54;72.55;100333.50;5059289;27;20409;-49
2022/11/10 12:36:13;;;;;;;5.82;0.52;;;;;;;14.47;72.27;100311.03;5034161;28;20423;-48
2022/11/10 12:41:20;;;;;;;3.75;1.73;;;;;;;14.45;73.10;100312.81;5029120;27;20407;-48
2022/11/10 12:44:12;;;;;;;5.85;3.10;;;;;;;14.44;73.00;100322.38;5000106;28;20046;-48
2022/11/10 12:46:43;;;;;;;6.95;3.28;;;;;;;14.45;72.76;100313.66;5027324;28;20073;-47
2022/11/10 12:52:12;;;;;;;2.03;0.80;;;;;;;14.51;72.46;100320.53;5040415;27;20418;-48
2022/11/10 12:54:40;;;;;;;3.22;0.80;;;;;;;14.57;72.42;100312.63;5039469;28;20139;-48
2022/11/10 12:57:15;;;;;;;5.30;1.02;;;;;;;14.57;72.48;100312.63;5036824;28;20318;-47
2022/11/10 12:59:55;;;;;;;1.60;0.70;;;;;;;14.57;72.70;100311.75;5032282;28;20103;-48
2022/11/10 13:08:03;;;;;;;4.00;0.85;;;;;;;14.57;72.54;100354.34;5053447;28;20403;-47
2022/11/10 13:10:30;;;;;;;1.40;0.65;;;;;;;14.53;72.83;100358.72;5012309;28;20204;-48
2022/11/10 13:13:14;;;;;;;5.95;1.63;;;;;;;14.48;72.46;100359.66;5014048;28;20128;-47
2022/11/10 13:21:08;;;;;;;5.40;1.85;;;;;;;14.46;72.31;100364.03;5028399;28;20417;-48
2022/11/10 13:35:39;;;;;;;11.85;5.03;;;;;;;14.47;72.33;100358.81;5031779;27;20388;-47
2022/11/10 13:38:32;;;;;;;3.78;2.70;;;;;;;14.45;72.33;100355.34;4993246;28;20152;-48
2022/11/10 13:41:20;;;;;;;6.28;2.65;;;;;;;14.42;71.68;100357.16;4999746;28;20129;-48
2022/11/10 13:43:50;;;;;;;7.40;1.63;;;;;;;14.48;71.88;100354.44;4997878;28;20813;-47
2022/11/10 13:46:17;;;;;;;;;;;;;;;14.32;72.41;100349.44;4996306;28;20114;-48
2022/11/10 13:48:58;;;;;;;12.82;3.95;;;;;;;14.40;72.47;100357.16;4996347;28;20021;-48
2022/11/10 13:51:50;;;;;;;6.45;2.10;;;;;;;14.33;72.03;100345.09;4994338;28;20477;-49
2022/11/10 14:00:21;;;;;;;7.22;1.70;;;;;;;14.63;70.67;100341.19;5015685;28;20922;-48
2022/11/10 14:08:12;;;;;;;2.65;1.00;;;;;;;14.40;72.09;100342.38;5044364;28;20392;-51
2022/11/10 14:10:49;;;;;;;6.88;1.25;;;;;;;14.38;71.48;100338.94;4999755;28;20172;-48